Accueil
METAR-TAF:

METAR-TAF

Aéroports :

Tachkent, Ouzbékistan

Aéroport international de Tachkent

latitude: 41-16N, longitude: 069-16E, altitude: 489 m

Observation

Le bulletin a été fait il y a 22 minutes, à 15:00 UTC
Vent 2 kt de sud-ouest
Température 24°C
Humidité 31%
Pression 1015 hPa
Visibilité: 4000 m
fumée

METAR: UTTT 191500Z 23002KT 4000 FU NSC 24/06 Q1015 R08R/CLRD70 NOSIG

Heure: 20:22 (15:22 UTC)

Prévision

Le bulletin a été fait il y a 4 heures et 22 minutes, à 11:00 UTC
Prévision valable du 19 à 12 UTC au 20 à 12 UTC
Vent 12 kt de nord-ouest
Visibilité: 7000 m

TAF: UTTT 191100Z 1912/2012 32012KT 7000 NSC

Observations et prévisions météorologiques de plus de 4000 aéroports (messages METAR et TAF).

Les stations disponibles sont représentées par des disques jaunes et rouges sur la carte.

Passer la souris dessus pour voir le nom de la station.

Cliquer dessus pour voir les observations et prévisions météorologiques.

Pour changer de carte: cliquez sur les boutons verts avec une croix noire pour zoomer, sur le bouton vert avec un tiret pour effectuer un zoom arrière, ou sur les flèches vertes pour les cartes adjacentes.


METAR-TAF: